Portada
METAR-TAF:

METAR-TAF

Aeroports :

Dijon, França

latitud: 47-16N, longitud: 005-05E, altitud: 222 m

Observació

L'informe es va fer fa 33 minuts, a les 10:00 UTC
Vent 4 kt del Est/Sud-Est, variant entre Nord-Est i Sud
Temperatura 24°C
Humitat 50%
Pressió 1016 hPa
Visibilitat 10 km o més
sense núvols per sota de 1500 mi sense presència de cumulonimbus.

METAR: LFSD 021000Z AUTO 11004KT 040V180 CAVOK 24/13 Q1016

Hora: 12:33 (10:33 UTC)


TAF: manca

Observacions i pronòstics meteorològics de més de 4000 aeroports (METAR i TAF).

Les estacions disponibles són els punts grocs i vermells al mapa.

Posi el ratolí al punt desitjat per veure el nom de l'estació.

Feu clic per veure les observacions i els pronòstics meteorològics.

Per canviar el mapa: feu clic els botons verds amb una creu de color negre per apropar; al botó verd amb un guió per allunyar la imatge; o en les fletxes verdes per a mapes adjacents.


METAR-TAF: